Waterford, Canada
Current Conditions -  °F | °C
As of 5:00 AM on Thursday 29 Jan 2015 (Local Time) from CYHM Reporting Station
Light Snow Light Snow  
Wind Chill: 10°   Ceiling: 8900
Heat Index: 21°   Visibility: 15mi
Dew Point: 12°   Wind: 10mph
Humidity: 68%   Direction: 130°SE
Pressure: 30.09"   Gusts: NA
Location:  42.93°N, 80.28°W
Report Text: CYHM 291000Z 13009KT 15SM -SN OVC089 M06/M11 A3009 RMK AC8 PRESFR SLP204
Loading
Personal Weather Stations






























Interactive Weather Map New forecast layout! Learn more

10-Day Weather Forecast

Advertisements
Track Severe Weather on mobile